Time;durP1;ratioP1;P1;durP2;ratioP2;P2;SDS_P1;SDS_P2;PMS_P1;PMS_P2;Temp;Humidity;BMP_temperature;BMP_pressure;BME280_temperature;BME280_humidity;BME280_pressure;Samples;Min_cycle;Max_cycle;Signal;HPM_P1;HPM_P2
2021/11/25 00:03:49;;;;;;;7.63;3.13;;;3.90;99.90;;;;;;10431270;28;20110;-59
2021/11/25 00:08:51;;;;;;;5.28;3.20;;;3.70;99.90;;;;;;10431944;28;20056;-61
2021/11/25 00:13:52;;;;;;;6.43;2.85;;;3.80;99.90;;;;;;10431768;28;20045;-59
2021/11/25 00:18:55;;;;;;;5.35;3.25;;;3.80;99.90;;;;;;10432054;28;20045;-59
2021/11/25 00:23:56;;;;;;;6.57;3.58;;;3.80;99.90;;;;;;10428122;28;20513;-59
2021/11/25 00:28:59;;;;;;;8.30;4.10;;;3.80;99.90;;;;;;10431737;28;20107;-59
2021/11/25 00:34:01;;;;;;;13.60;5.13;;;3.80;99.90;;;;;;10432126;28;20065;-58
2021/11/25 00:39:03;;;;;;;12.43;4.97;;;3.80;99.90;;;;;;10428600;28;20107;-58
2021/11/25 00:44:04;;;;;;;17.10;5.07;;;3.80;99.90;;;;;;10432028;28;20076;-58
2021/11/25 00:49:06;;;;;;;16.52;5.85;;;3.90;99.90;;;;;;10431397;28;20064;-59
2021/11/25 00:54:08;;;;;;;13.93;5.70;;;3.90;99.90;;;;;;10430473;28;20463;-58
2021/11/25 00:59:11;;;;;;;13.35;5.90;;;3.90;99.90;;;;;;10429685;28;20554;-59
2021/11/25 01:04:12;;;;;;;15.70;5.93;;;3.80;99.90;;;;;;10428689;28;20111;-59
2021/11/25 01:09:14;;;;;;;13.98;5.80;;;3.80;99.90;;;;;;10424389;28;20055;-58
2021/11/25 01:14:18;;;;;;;14.38;5.03;;;3.80;99.90;;;;;;10430273;28;20080;-59
2021/11/25 01:19:20;;;;;;;17.70;6.25;;;3.80;99.90;;;;;;10429838;28;20045;-59
2021/11/25 01:24:22;;;;;;;20.38;5.97;;;3.80;99.90;;;;;;10429456;28;20075;-58
2021/11/25 01:29:23;;;;;;;12.57;6.50;;;3.80;99.90;;;;;;10429150;28;20508;-58
2021/11/25 01:34:25;;;;;;;19.00;5.45;;;3.90;99.90;;;;;;10428644;28;20115;-59
2021/11/25 01:39:27;;;;;;;14.93;5.18;;;3.70;99.90;;;;;;10427821;28;20053;-58
2021/11/25 01:44:29;;;;;;;14.00;5.20;;;3.80;99.90;;;;;;10442517;28;20122;-58
2021/11/25 01:49:31;;;;;;;13.50;5.03;;;3.80;99.90;;;;;;10426845;28;20091;-59
2021/11/25 01:54:32;;;;;;;14.30;5.88;;;3.80;99.90;;;;;;10430139;28;20049;-58
2021/11/25 01:59:36;;;;;;;13.50;5.30;;;3.80;99.90;;;;;;10428997;28;20131;-59
2021/11/25 02:04:38;;;;;;;15.32;6.15;;;3.80;99.90;;;;;;10426242;28;20091;-57
2021/11/25 02:09:39;;;;;;;16.45;6.22;;;3.80;99.90;;;;;;10425503;28;20052;-57
2021/11/25 02:14:41;;;;;;;19.90;6.85;;;3.80;99.90;;;;;;10427859;28;20134;-58
2021/11/25 02:19:43;;;;;;;17.67;5.72;;;3.80;99.90;;;;;;10428560;28;20045;-58
2021/11/25 02:24:48;;;;;;;16.17;6.10;;;3.80;99.90;;;;;;10426072;28;20111;-58
2021/11/25 02:29:51;;;;;;;15.60;5.82;;;3.90;99.90;;;;;;10425632;28;20060;-60
2021/11/25 02:34:52;;;;;;;19.70;5.93;;;3.90;99.90;;;;;;10437348;28;20080;-59
2021/11/25 02:39:54;;;;;;;20.17;6.35;;;3.80;99.90;;;;;;10436834;28;20107;-58
2021/11/25 02:44:56;;;;;;;18.17;6.10;;;3.80;99.90;;;;;;10437068;28;20092;-59
2021/11/25 02:49:57;;;;;;;15.75;5.65;;;3.70;99.90;;;;;;10434499;28;20080;-58
2021/11/25 02:54:59;;;;;;;17.50;6.10;;;3.70;99.90;;;;;;10435635;28;20125;-59
2021/11/25 03:00:01;;;;;;;15.38;6.53;;;3.80;99.90;;;;;;10433580;28;20053;-59
2021/11/25 03:05:03;;;;;;;17.95;6.22;;;3.70;99.90;;;;;;10445878;28;20060;-59
2021/11/25 03:10:05;;;;;;;16.48;6.20;;;3.80;99.90;;;;;;10436776;28;20060;-58
2021/11/25 03:15:07;;;;;;;12.27;5.78;;;3.80;99.90;;;;;;10433427;28;20115;-58
2021/11/25 03:20:11;;;;;;;15.95;7.20;;;3.80;99.90;;;;;;10436486;28;20057;-58
2021/11/25 03:25:13;;;;;;;16.77;6.95;;;3.80;99.90;;;;;;10434903;28;20068;-58
2021/11/25 03:30:15;;;;;;;14.77;5.22;;;3.80;99.90;;;;;;10433319;28;20045;-58
2021/11/25 03:35:16;;;;;;;15.05;6.20;;;3.70;99.90;;;;;;10435064;28;20156;-58
2021/11/25 03:40:18;;;;;;;16.58;5.57;;;3.70;99.90;;;;;;10434682;28;20061;-58
2021/11/25 03:45:20;;;;;;;14.10;5.93;;;3.50;99.90;;;;;;10433820;28;20123;-60
2021/11/25 03:50:22;;;;;;;16.60;7.38;;;3.50;99.90;;;;;;10434064;28;20052;-58
2021/11/25 03:55:24;;;;;;;15.82;5.50;;;3.50;99.90;;;;;;10434693;28;20076;-58
2021/11/25 04:00:27;;;;;;;16.42;6.70;;;3.60;99.90;;;;;;10434153;28;21322;-58
2021/11/25 04:05:30;;;;;;;18.40;6.93;;;3.60;99.90;;;;;;10429064;28;20053;-58
2021/11/25 04:10:32;;;;;;;16.40;6.18;;;3.70;99.90;;;;;;10429763;28;20045;-59
2021/11/25 04:15:34;;;;;;;18.02;7.72;;;3.70;99.90;;;;;;10434270;28;20138;-59
2021/11/25 04:20:36;;;;;;;16.60;6.88;;;3.60;99.90;;;;;;10429723;28;20081;-59
2021/11/25 04:25:38;;;;;;;18.85;7.35;;;3.50;99.90;;;;;;10432334;28;20057;-58
2021/11/25 04:35:42;;;;;;;18.52;6.50;;;3.60;99.90;;;;;;10428402;28;20071;-58
2021/11/25 04:40:50;;;;;;;15.20;5.93;;;3.70;99.90;;;;;;10432236;28;20122;-59
2021/11/25 04:45:52;;;;;;;;;;;3.70;99.90;;;;;;10430717;28;20144;-58
2021/11/25 04:50:54;;;;;;;17.63;6.30;;;3.70;99.90;;;;;;10430256;28;19924;-58
2021/11/25 04:55:56;;;;;;;15.75;5.75;;;3.70;99.90;;;;;;10431016;28;20491;-58
2021/11/25 05:00:58;;;;;;;16.00;6.07;;;3.60;99.90;;;;;;10429527;28;20053;-58
2021/11/25 05:06:00;;;;;;;16.17;7.53;;;3.60;99.90;;;;;;10433045;28;20060;-59
2021/11/25 05:11:02;;;;;;;18.88;6.63;;;3.70;99.90;;;;;;10426882;28;20099;-59
2021/11/25 05:16:04;;;;;;;15.13;5.93;;;3.70;99.90;;;;;;10430413;28;20064;-59
2021/11/25 05:21:14;;;;;;;13.13;5.85;;;3.60;99.90;;;;;;10593883;27;20173;-58
2021/11/25 05:26:15;;;;;;;17.85;6.57;;;3.70;99.90;;;;;;10558618;27;20051;-59
2021/11/25 05:31:17;;;;;;;17.65;6.28;;;3.60;99.90;;;;;;10564053;27;20100;-59
2021/11/25 05:36:19;;;;;;;16.88;6.25;;;3.70;99.90;;;;;;10563217;27;20040;-58
2021/11/25 05:41:21;;;;;;;17.02;6.07;;;3.70;99.90;;;;;;10555447;27;20076;-58
2021/11/25 05:46:24;;;;;;;16.05;6.25;;;3.80;99.90;;;;;;10561323;27;20613;-58
2021/11/25 05:51:26;;;;;;;18.13;6.03;;;3.80;99.90;;;;;;10560659;27;20943;-59
2021/11/25 05:56:27;;;;;;;19.30;7.45;;;3.80;99.90;;;;;;10559802;27;20054;-58
2021/11/25 06:01:29;;;;;;;15.90;6.60;;;3.90;99.90;;;;;;10564032;27;20482;-59
2021/11/25 06:06:31;;;;;;;16.58;7.03;;;3.90;99.90;;;;;;10555775;27;20497;-59
2021/11/25 06:11:33;;;;;;;17.88;6.43;;;3.80;99.90;;;;;;10557256;27;20051;-59
2021/11/25 06:16:34;;;;;;;18.73;7.28;;;3.90;99.90;;;;;;10555534;27;20467;-59
2021/11/25 06:21:36;;;;;;;19.60;6.68;;;3.90;99.90;;;;;;10558304;27;20051;-58
2021/11/25 06:26:44;;;;;;;17.08;6.60;;;3.90;99.90;;;;;;10564551;27;20413;-58
2021/11/25 06:31:46;;;;;;;15.10;6.05;;;3.90;99.90;;;;;;10533922;27;20040;-58
2021/11/25 06:36:47;;;;;;;15.60;6.25;;;3.80;99.90;;;;;;10534983;27;20089;-64
2021/11/25 06:41:49;;;;;;;15.88;5.63;;;3.90;99.90;;;;;;10534225;28;20101;-65
2021/11/25 06:46:51;;;;;;;16.10;6.13;;;3.90;99.90;;;;;;10533334;27;20054;-64
2021/11/25 06:51:53;;;;;;;15.27;6.88;;;3.90;99.90;;;;;;10536810;27;20181;-65
2021/11/25 06:56:54;;;;;;;18.55;6.82;;;3.90;99.90;;;;;;10532122;27;20478;-64
2021/11/25 07:01:58;;;;;;;15.10;6.63;;;4.00;99.90;;;;;;10531306;27;20048;-64
2021/11/25 07:07:02;;;;;;;18.40;7.72;;;3.90;99.90;;;;;;10530822;28;20149;-65
2021/11/25 07:12:04;;;;;;;14.40;6.63;;;4.00;99.90;;;;;;10532154;28;20051;-64
2021/11/25 07:17:05;;;;;;;16.88;6.95;;;3.90;99.90;;;;;;10531282;27;20047;-64
2021/11/25 07:22:07;;;;;;;19.38;7.30;;;3.90;99.90;;;;;;10528986;27;20048;-64
2021/11/25 07:27:10;;;;;;;18.90;7.25;;;3.90;99.90;;;;;;10526771;28;20040;-64
2021/11/25 07:32:11;;;;;;;16.52;6.60;;;3.90;99.90;;;;;;10525592;27;20479;-65
2021/11/25 07:37:14;;;;;;;16.08;7.10;;;4.00;99.90;;;;;;10527111;28;20044;-64
2021/11/25 07:42:16;;;;;;;16.38;7.25;;;4.00;99.90;;;;;;10530411;28;20120;-64
2021/11/25 07:47:23;;;;;;;18.17;6.65;;;4.00;99.90;;;;;;10541191;27;20056;-64
2021/11/25 07:52:25;;;;;;;19.00;7.60;;;4.00;99.90;;;;;;10530544;28;20039;-64
2021/11/25 07:57:27;;;;;;;20.52;8.65;;;4.00;99.90;;;;;;10531829;27;20351;-64
2021/11/25 08:02:31;;;;;;;18.85;7.32;;;4.10;99.90;;;;;;10530195;28;20101;-64
2021/11/25 08:07:35;;;;;;;16.35;7.65;;;4.10;99.90;;;;;;10527168;28;20044;-64
2021/11/25 08:12:37;;;;;;;19.60;7.82;;;4.10;99.90;;;;;;10525780;28;20129;-64
2021/11/25 08:17:40;;;;;;;21.85;8.77;;;4.10;99.90;;;;;;10530340;28;20065;-62
2021/11/25 08:22:42;;;;;;;20.33;7.15;;;4.10;99.90;;;;;;10525218;28;20134;-62
2021/11/25 08:27:43;;;;;;;18.17;7.43;;;4.10;99.90;;;;;;10521657;28;20044;-62
2021/11/25 08:32:45;;;;;;;16.48;7.45;;;4.20;99.90;;;;;;10526268;27;20055;-62
2021/11/25 08:37:47;;;;;;;21.55;7.68;;;4.30;99.90;;;;;;10523682;28;20048;-62
2021/11/25 08:42:51;;;;;;;15.32;6.40;;;4.10;99.90;;;;;;10525213;27;20051;-62
2021/11/25 08:47:53;;;;;;;18.45;7.20;;;3.90;99.90;;;;;;10531880;28;20055;-62
2021/11/25 08:52:55;;;;;;;18.67;7.45;;;4.10;99.90;;;;;;10527196;28;20057;-62
2021/11/25 08:57:56;;;;;;;19.02;7.72;;;4.00;99.90;;;;;;10528877;28;20044;-62
2021/11/25 09:02:58;;;;;;;20.45;7.20;;;4.00;99.90;;;;;;10526118;28;20630;-62
2021/11/25 09:08:01;;;;;;;16.63;6.90;;;4.10;99.90;;;;;;10531067;28;20051;-62
2021/11/25 09:13:04;;;;;;;18.83;8.50;;;4.00;99.90;;;;;;10522119;28;20077;-62
2021/11/25 09:18:10;;;;;;;20.23;8.45;;;4.10;99.90;;;;;;10529000;28;20039;-62
2021/11/25 09:23:15;;;;;;;22.30;9.05;;;4.10;99.90;;;;;;10526784;28;20155;-62
2021/11/25 09:28:20;;;;;;;16.83;6.55;;;4.30;99.90;;;;;;10526455;28;20040;-62
2021/11/25 09:33:23;;;;;;;18.90;7.78;;;4.10;99.50;;;;;;10529849;28;20633;-62
2021/11/25 09:38:25;;;;;;;20.50;7.38;;;4.30;99.20;;;;;;10522865;28;20048;-62
2021/11/25 09:43:27;;;;;;;19.05;6.60;;;4.20;98.90;;;;;;10527545;28;20343;-62
2021/11/25 09:48:29;;;;;;;17.83;7.53;;;4.10;98.60;;;;;;10524199;28;20085;-62
2021/11/25 09:53:33;;;;;;;18.70;7.47;;;4.20;98.80;;;;;;10525388;28;20444;-62
2021/11/25 09:58:37;;;;;;;22.90;7.60;;;4.20;98.70;;;;;;10527215;28;20048;-63
2021/11/25 10:03:48;;;;;;;24.13;9.45;;;4.20;99.00;;;;;;10523887;28;20083;-62
2021/11/25 10:08:52;;;;;;;19.90;7.60;;;4.20;99.30;;;;;;10531575;28;20051;-62
2021/11/25 10:14:02;;;;;;;18.98;7.45;;;4.30;99.90;;;;;;10533609;28;20044;-62
2021/11/25 10:19:13;;;;;;;20.80;8.48;;;4.30;99.40;;;;;;10536142;28;20097;-62
2021/11/25 10:24:15;;;;;;;21.08;7.47;;;4.30;99.40;;;;;;10530964;28;20136;-64
2021/11/25 10:29:22;;;;;;;20.98;8.40;;;4.20;99.40;;;;;;10537754;27;20100;-64
2021/11/25 10:34:24;;;;;;;19.00;7.40;;;4.30;99.00;;;;;;10532602;27;20074;-64
2021/11/25 10:40:09;;;;;;;18.83;7.70;;;4.30;98.30;;;;;;10530784;27;20062;-66
2021/11/25 10:45:14;;;;;;;19.15;7.20;;;4.30;98.50;;;;;;10528967;28;20048;-64
2021/11/25 10:50:16;;;;;;;17.85;6.80;;;4.30;98.50;;;;;;10531286;28;20552;-65
2021/11/25 10:55:18;;;;;;;18.25;7.20;;;4.30;97.90;;;;;;10529315;28;20112;-64
2021/11/25 11:00:33;;;;;;;18.88;7.65;;;4.30;98.20;;;;;;10523071;28;21080;-65
2021/11/25 11:05:59;;;;;;;23.48;8.27;;;4.40;98.00;;;;;;10530091;28;20071;-64
2021/11/25 11:11:04;;;;;;;15.00;6.57;;;4.40;98.00;;;;;;10525252;28;20052;-64
2021/11/25 11:21:29;;;;;;;19.92;7.75;;;4.40;98.20;;;;;;10530036;28;20469;-64
2021/11/25 11:26:32;;;;;;;17.90;7.20;;;4.40;97.90;;;;;;10526182;27;20825;-65
2021/11/25 11:31:35;;;;;;;22.02;7.32;;;4.40;98.30;;;;;;10526771;28;20043;-65
2021/11/25 11:36:40;;;;;;;20.58;7.25;;;4.50;98.30;;;;;;10526028;27;20070;-65
2021/11/25 11:41:45;;;;;;;24.83;7.90;;;4.50;98.40;;;;;;10529284;28;20063;-65
2021/11/25 11:46:56;;;;;;;22.83;8.05;;;4.50;98.60;;;;;;10529649;27;20051;-65
2021/11/25 11:52:13;;;;;;;19.10;7.10;;;4.50;98.00;;;;;;10528505;27;20069;-65
2021/11/25 11:57:39;;;;;;;19.05;7.45;;;4.70;98.20;;;;;;10529664;27;20160;-65
2021/11/25 12:02:43;;;;;;;17.80;7.40;;;4.80;97.10;;;;;;10523030;28;20036;-65
2021/11/25 12:07:45;;;;;;;21.35;8.25;;;4.80;96.90;;;;;;10522456;28;20048;-65
2021/11/25 12:13:05;;;;;;;17.35;7.53;;;4.90;97.60;;;;;;10570070;27;20046;-65
2021/11/25 12:18:33;;;;;;;20.65;7.47;;;5.00;97.00;;;;;;10567172;27;20047;-65
2021/11/25 12:23:38;;;;;;;21.05;7.75;;;4.70;97.70;;;;;;10568654;27;20458;-65
2021/11/25 12:28:42;;;;;;;19.58;6.55;;;4.70;97.80;;;;;;10569564;27;20501;-65
2021/11/25 12:33:46;;;;;;;24.83;7.47;;;4.70;97.90;;;;;;10568437;27;20048;-65
2021/11/25 12:38:48;;;;;;;23.83;7.57;;;4.70;97.70;;;;;;10577194;27;20501;-66
2021/11/25 12:43:49;;;;;;;18.55;6.90;;;4.70;97.80;;;;;;10565432;27;20051;-65
2021/11/25 12:48:54;;;;;;;18.33;6.80;;;4.70;97.60;;;;;;10568849;27;20043;-65
2021/11/25 12:54:02;;;;;;;18.00;6.20;;;4.80;97.20;;;;;;10568618;27;20046;-66
2021/11/25 12:59:09;;;;;;;19.48;6.97;;;5.00;96.60;;;;;;10566552;27;20051;-65
2021/11/25 13:04:20;;;;;;;14.10;6.85;;;5.00;95.30;;;;;;10566864;27;20043;-65
2021/11/25 13:09:27;;;;;;;14.82;6.07;;;5.10;95.40;;;;;;10566794;27;20083;-66
2021/11/25 13:14:30;;;;;;;;;;;5.00;95.20;;;;;;10563418;28;20109;-65
2021/11/25 13:19:34;;;;;;;18.13;5.85;;;5.20;95.40;;;;;;10566552;27;20011;-65
2021/11/25 13:24:37;;;;;;;15.93;7.00;;;5.00;94.70;;;;;;10567466;28;20062;-65
2021/11/25 13:29:47;;;;;;;12.20;5.75;;;5.00;94.60;;;;;;10565588;28;20498;-65
2021/11/25 13:34:55;;;;;;;15.82;6.00;;;5.10;94.50;;;;;;10571702;28;20039;-65
2021/11/25 13:40:00;;;;;;;12.68;5.75;;;5.30;95.50;;;;;;10566180;27;20101;-65
2021/11/25 13:45:03;;;;;;;17.70;6.85;;;5.10;94.10;;;;;;10577874;27;20134;-65
2021/11/25 13:50:15;;;;;;;15.55;6.25;;;5.10;94.50;;;;;;10576021;27;20077;-65
2021/11/25 13:55:21;;;;;;;16.73;6.25;;;5.30;94.60;;;;;;10564550;27;20119;-65
2021/11/25 14:00:35;;;;;;;21.38;5.97;;;5.40;94.00;;;;;;10576633;27;20107;-65
2021/11/25 14:05:58;;;;;;;5.40;2.75;;;5.50;94.00;;;;;;10565991;27;20047;-63
2021/11/25 14:11:13;;;;;;;5.72;2.65;;;5.50;91.30;;;;;;10573855;27;20591;-62
2021/11/25 14:16:17;;;;;;;11.57;4.75;;;5.60;90.90;;;;;;10577668;27;20054;-64
2021/11/25 14:21:37;;;;;;;15.40;5.55;;;5.60;92.20;;;;;;10565276;27;20043;-62
2021/11/25 14:32:18;;;;;;;5.68;3.10;;;5.60;92.40;;;;;;10571338;27;20095;-63
2021/11/25 14:37:28;;;;;;;14.18;5.78;;;5.50;90.90;;;;;;10566889;27;20089;-63
2021/11/25 14:42:30;;;;;;;12.55;5.20;;;5.40;92.30;;;;;;10573583;27;20043;-63
2021/11/25 14:47:48;;;;;;;13.13;5.57;;;5.30;92.70;;;;;;10572845;27;20143;-63
2021/11/25 14:52:56;;;;;;;;;;;5.20;93.20;;;;;;10574699;27;20052;-63
2021/11/25 14:58:00;;;;;;;12.32;4.55;;;5.10;93.50;;;;;;10570047;27;20426;-63
2021/11/25 15:03:07;;;;;;;11.18;4.00;;;5.10;93.50;;;;;;10572043;27;20099;-63
2021/11/25 15:08:12;;;;;;;10.07;4.55;;;5.10;93.20;;;;;;10571269;27;20055;-63
2021/11/25 15:13:15;;;;;;;18.67;5.18;;;5.00;93.80;;;;;;10570057;27;20051;-63
2021/11/25 15:18:21;;;;;;;11.68;4.78;;;5.00;94.10;;;;;;10569443;27;20175;-63
2021/11/25 15:23:25;;;;;;;11.40;5.05;;;4.90;94.30;;;;;;10566595;27;20560;-63
2021/11/25 15:28:27;;;;;;;10.27;3.65;;;4.80;94.00;;;;;;10569965;27;20145;-63
2021/11/25 15:33:29;;;;;;;12.40;5.05;;;4.70;94.70;;;;;;10571295;27;20071;-63
2021/11/25 15:38:31;;;;;;;10.77;4.28;;;4.50;94.40;;;;;;10559140;27;20047;-64
2021/11/25 15:43:33;;;;;;;9.85;4.07;;;4.50;94.80;;;;;;10566656;27;20055;-65
2021/11/25 15:48:35;;;;;;;14.20;4.65;;;4.40;94.80;;;;;;10561631;27;20059;-65
2021/11/25 15:53:37;;;;;;;9.10;3.85;;;4.40;95.20;;;;;;10567543;27;20051;-65
2021/11/25 15:58:38;;;;;;;10.35;4.57;;;4.40;94.50;;;;;;10563414;27;20054;-65
2021/11/25 16:03:42;;;;;;;11.00;5.18;;;4.40;95.10;;;;;;10563449;27;20100;-65
2021/11/25 16:08:43;;;;;;;17.27;6.15;;;4.40;95.90;;;;;;10551864;27;20046;-66
2021/11/25 16:13:47;;;;;;;20.08;5.80;;;4.40;96.70;;;;;;10568561;27;20078;-64
2021/11/25 16:18:49;;;;;;;15.98;6.03;;;4.40;97.40;;;;;;10567099;27;20047;-59
2021/11/25 16:23:51;;;;;;;15.98;7.03;;;4.40;97.60;;;;;;10566869;27;20566;-59
2021/11/25 16:28:53;;;;;;;16.38;5.70;;;4.50;98.10;;;;;;10566951;27;20794;-59
2021/11/25 16:33:56;;;;;;;22.17;6.60;;;4.40;97.80;;;;;;10570338;27;20043;-59
2021/11/25 16:38:58;;;;;;;19.55;6.10;;;4.30;97.60;;;;;;10562279;27;20135;-59
2021/11/25 16:44:00;;;;;;;20.25;6.30;;;4.30;97.90;;;;;;10570774;27;20075;-59
2021/11/25 16:49:02;;;;;;;20.58;7.03;;;4.20;98.50;;;;;;10566551;27;20051;-59
2021/11/25 16:54:04;;;;;;;17.77;8.45;;;4.20;98.10;;;;;;10566021;27;20047;-60
2021/11/25 16:59:06;;;;;;;20.70;7.38;;;4.20;98.40;;;;;;10563026;27;20097;-60
2021/11/25 17:04:08;;;;;;;20.13;7.95;;;4.10;98.60;;;;;;10568238;27;20056;-61
2021/11/25 17:09:10;;;;;;;20.58;8.43;;;4.10;98.80;;;;;;10538329;27;20062;-61
2021/11/25 17:14:12;;;;;;;22.27;8.20;;;4.10;98.80;;;;;;10566967;27;20528;-59
2021/11/25 17:19:14;;;;;;;23.83;9.05;;;4.10;98.90;;;;;;10552675;28;20044;-60
2021/11/25 17:24:16;;;;;;;23.52;10.32;;;4.20;99.00;;;;;;10557935;28;20104;-59
2021/11/25 17:29:18;;;;;;;21.63;9.23;;;4.20;99.30;;;;;;10550689;28;20040;-60
2021/11/25 17:34:20;;;;;;;20.42;7.47;;;4.20;99.00;;;;;;10566447;28;20063;-60
2021/11/25 17:39:21;;;;;;;20.45;7.68;;;4.20;98.60;;;;;;10561952;28;20043;-59
2021/11/25 17:44:24;;;;;;;22.08;7.65;;;4.20;98.70;;;;;;10550649;28;20055;-59
2021/11/25 17:49:27;;;;;;;22.48;7.57;;;4.10;98.70;;;;;;10546585;28;20465;-60
2021/11/25 17:54:29;;;;;;;19.67;7.43;;;4.10;98.80;;;;;;10565619;28;20383;-60
2021/11/25 17:59:30;;;;;;;23.73;8.60;;;4.10;98.90;;;;;;10563309;28;20048;-59
2021/11/25 18:04:32;;;;;;;20.45;8.30;;;4.00;99.30;;;;;;10565073;28;20055;-59
2021/11/25 18:09:34;;;;;;;21.73;7.85;;;4.00;99.70;;;;;;10563482;28;20051;-59
2021/11/25 18:14:36;;;;;;;19.92;8.60;;;4.10;99.90;;;;;;10563757;28;20047;-59
2021/11/25 18:19:37;;;;;;;23.58;8.30;;;4.00;99.90;;;;;;10550019;28;20083;-61
2021/11/25 18:24:39;;;;;;;24.67;8.82;;;4.00;99.90;;;;;;10563450;27;20051;-59
2021/11/25 18:29:44;;;;;;;20.13;7.97;;;3.90;99.90;;;;;;10574400;27;20443;-60
2021/11/25 18:34:46;;;;;;;24.45;8.95;;;3.90;99.90;;;;;;10569527;27;20051;-58
2021/11/25 18:39:48;;;;;;;25.13;8.93;;;3.80;99.90;;;;;;10570118;27;20074;-59
2021/11/25 18:44:50;;;;;;;25.10;9.27;;;3.80;99.90;;;;;;10571676;27;20476;-58
2021/11/25 18:49:53;;;;;;;29.95;9.98;;;3.70;99.90;;;;;;10568895;27;20039;-59
2021/11/25 18:54:55;;;;;;;22.55;8.77;;;3.70;99.90;;;;;;10571791;27;20116;-59
2021/11/25 18:59:57;;;;;;;24.50;9.55;;;3.70;99.90;;;;;;10568523;27;20051;-59
2021/11/25 19:05:00;;;;;;;23.13;8.50;;;3.70;99.90;;;;;;10576169;27;20055;-59
2021/11/25 19:10:03;;;;;;;25.02;9.38;;;3.70;99.90;;;;;;10570968;27;20039;-59
2021/11/25 19:15:05;;;;;;;22.65;8.25;;;3.70;99.90;;;;;;10567762;27;20075;-59
2021/11/25 19:20:09;;;;;;;21.00;9.30;;;3.70;99.90;;;;;;10572116;27;20042;-59
2021/11/25 19:25:11;;;;;;;22.38;8.60;;;3.70;99.90;;;;;;10571802;27;20042;-59
2021/11/25 19:30:14;;;;;;;24.15;9.90;;;3.70;99.90;;;;;;10572879;27;20108;-58
2021/11/25 19:35:17;;;;;;;19.67;8.13;;;3.70;99.90;;;;;;10570593;27;20056;-59
2021/11/25 19:40:21;;;;;;;21.73;7.68;;;3.80;99.90;;;;;;10569980;27;20051;-58
2021/11/25 19:45:24;;;;;;;22.40;9.60;;;3.70;99.90;;;;;;10575948;27;20493;-58
2021/11/25 19:50:27;;;;;;;22.65;9.27;;;3.70;99.90;;;;;;10567808;27;20097;-59
2021/11/25 19:55:28;;;;;;;22.48;8.40;;;3.60;99.90;;;;;;10568749;27;20055;-58
2021/11/25 20:00:36;;;;;;;21.77;7.78;;;3.70;99.90;;;;;;10567230;27;20075;-59
2021/11/25 20:05:38;;;;;;;24.85;8.63;;;3.70;99.90;;;;;;10571975;27;20081;-58
2021/11/25 20:10:41;;;;;;;21.48;8.80;;;3.60;99.90;;;;;;10563018;27;20048;-58
2021/11/25 20:15:43;;;;;;;21.88;8.77;;;3.60;99.90;;;;;;10546881;27;20059;-59
2021/11/25 20:20:45;;;;;;;23.38;9.32;;;3.70;99.90;;;;;;10567487;27;20058;-59
2021/11/25 20:25:47;;;;;;;21.90;8.07;;;3.70;99.90;;;;;;10568398;27;20093;-59
2021/11/25 20:30:49;;;;;;;18.63;7.57;;;3.70;99.90;;;;;;10563549;27;20039;-59
2021/11/25 20:35:51;;;;;;;25.13;8.55;;;3.60;99.90;;;;;;10568610;27;20494;-58
2021/11/25 20:40:53;;;;;;;23.10;9.02;;;3.60;99.90;;;;;;10563435;27;20056;-60
2021/11/25 20:45:55;;;;;;;27.25;9.13;;;3.70;99.90;;;;;;10566523;27;21174;-59
2021/11/25 20:50:57;;;;;;;21.58;8.50;;;3.60;99.90;;;;;;10564991;27;20057;-59
2021/11/25 20:55:59;;;;;;;23.08;8.48;;;3.60;99.90;;;;;;10549250;27;20074;-60
2021/11/25 21:01:01;;;;;;;21.88;8.73;;;3.60;99.90;;;;;;10560838;27;20120;-59
2021/11/25 21:06:03;;;;;;;29.58;12.15;;;3.60;99.90;;;;;;10564989;27;20051;-59
2021/11/25 21:11:08;;;;;;;27.85;12.20;;;3.60;99.90;;;;;;10563901;27;20047;-60
2021/11/25 21:16:25;;;;;;;33.45;12.50;;;3.60;99.90;;;;;;10569224;27;20684;-59
2021/11/25 21:21:27;;;;;;;28.95;12.35;;;3.50;99.90;;;;;;10563635;28;20116;-59
2021/11/25 21:26:29;;;;;;;30.50;13.52;;;3.60;99.90;;;;;;10549341;27;20052;-57
2021/11/25 21:31:32;;;;;;;22.20;10.60;;;3.60;99.90;;;;;;10568962;28;20138;-58
2021/11/25 21:36:38;;;;;;;26.33;10.27;;;3.60;99.90;;;;;;10535680;27;20121;-60
2021/11/25 21:41:41;;;;;;;21.92;8.95;;;3.60;99.90;;;;;;10566556;28;20047;-59
2021/11/25 21:46:44;;;;;;;20.10;9.13;;;3.70;99.90;;;;;;10562652;28;20099;-59
2021/11/25 21:51:47;;;;;;;26.13;9.88;;;3.70;99.90;;;;;;10560907;27;20112;-58
2021/11/25 21:56:49;;;;;;;27.67;9.38;;;3.70;99.90;;;;;;10566838;28;20079;-58
2021/11/25 22:01:52;;;;;;;23.45;9.20;;;3.70;99.90;;;;;;10569267;27;20128;-58
2021/11/25 22:06:55;;;;;;;20.10;8.10;;;3.70;99.90;;;;;;10569647;27;20043;-58
2021/11/25 22:11:57;;;;;;;22.70;8.82;;;3.70;99.90;;;;;;10570963;27;20120;-59
2021/11/25 22:16:59;;;;;;;20.23;8.20;;;3.80;99.90;;;;;;10540090;27;20144;-59
2021/11/25 22:27:02;;;;;;;19.70;8.23;;;3.70;99.90;;;;;;10544228;27;20486;-59
2021/11/25 22:32:04;;;;;;;21.00;8.25;;;3.70;99.90;;;;;;10542314;27;20108;-59
2021/11/25 22:37:06;;;;;;;19.58;8.73;;;3.80;99.90;;;;;;10562283;27;20146;-59
2021/11/25 22:42:08;;;;;;;17.52;7.90;;;3.80;99.90;;;;;;10576330;27;20040;-59
2021/11/25 22:47:10;;;;;;;18.38;8.02;;;3.70;99.90;;;;;;10567263;27;20114;-59
2021/11/25 22:52:12;;;;;;;25.65;8.50;;;3.70;99.90;;;;;;10575207;27;20039;-59
2021/11/25 22:57:14;;;;;;;22.75;8.32;;;3.70;99.90;;;;;;10573704;27;20044;-58
2021/11/25 23:02:16;;;;;;;26.77;8.57;;;3.70;99.90;;;;;;10569251;27;20052;-60
2021/11/25 23:07:18;;;;;;;21.05;9.13;;;3.70;99.90;;;;;;10571402;27;20050;-60
2021/11/25 23:12:20;;;;;;;18.58;7.95;;;3.70;99.90;;;;;;10558153;27;20040;-58
2021/11/25 23:17:22;;;;;;;20.65;8.65;;;3.60;99.90;;;;;;10576623;27;20043;-59
2021/11/25 23:22:23;;;;;;;20.52;8.55;;;3.60;99.90;;;;;;10572064;27;20047;-59
2021/11/25 23:27:25;;;;;;;19.75;8.55;;;3.70;99.90;;;;;;10575394;27;20070;-59
2021/11/25 23:32:27;;;;;;;24.40;9.20;;;3.70;99.90;;;;;;10571539;27;20116;-59
2021/11/25 23:37:28;;;;;;;19.65;8.02;;;3.60;99.90;;;;;;10576942;27;20059;-60
2021/11/25 23:42:30;;;;;;;18.00;8.20;;;3.40;99.90;;;;;;10577435;27;20074;-59
2021/11/25 23:47:33;;;;;;;20.48;7.75;;;3.30;99.90;;;;;;10570055;27;20332;-58
2021/11/25 23:52:34;;;;;;;21.33;8.65;;;3.30;99.90;;;;;;10569717;27;20043;-58
2021/11/25 23:57:37;;;;;;;22.98;8.30;;;3.30;99.90;;;;;;10570760;27;20043;-58
